sensor_id;sensor_type;location;lat;lon;timestamp;pressure;altitude;pressure_sealevel;temperature;humidity
32237;BME280;18726;44.732;10.550;2023-07-24T00:02:58;100803.81;;;27.12;64.35
32237;BME280;18726;44.732;10.550;2023-07-24T00:06:02;100796.75;;;26.99;64.23
32237;BME280;18726;44.732;10.550;2023-07-24T00:09:06;100794.78;;;26.86;66.65
32237;BME280;18726;44.732;10.550;2023-07-24T00:12:10;100797.41;;;27.03;69.23
32237;BME280;18726;44.732;10.550;2023-07-24T00:15:14;100791.41;;;26.91;69.48
32237;BME280;18726;44.732;10.550;2023-07-24T00:18:17;100780.94;;;26.96;66.92
32237;BME280;18726;44.732;10.550;2023-07-24T00:21:21;100772.50;;;26.86;66.89
32237;BME280;18726;44.732;10.550;2023-07-24T00:24:25;100780.84;;;26.86;67.89
32237;BME280;18726;44.732;10.550;2023-07-24T00:27:28;100788.53;;;26.73;67.67
32237;BME280;18726;44.732;10.550;2023-07-24T00:30:32;100783.88;;;26.48;65.18
32237;BME280;18726;44.732;10.550;2023-07-24T00:33:35;100775.53;;;26.48;67.31
32237;BME280;18726;44.732;10.550;2023-07-24T00:36:39;100779.28;;;26.54;68.20
32237;BME280;18726;44.732;10.550;2023-07-24T00:39:43;100773.56;;;26.58;67.42
32237;BME280;18726;44.732;10.550;2023-07-24T00:42:48;100760.69;;;26.51;66.06
32237;BME280;18726;44.732;10.550;2023-07-24T00:45:52;100759.06;;;26.41;67.62
32237;BME280;18726;44.732;10.550;2023-07-24T00:48:59;100762.53;;;26.33;68.09
32237;BME280;18726;44.732;10.550;2023-07-24T00:52:04;100767.44;;;26.29;65.87
32237;BME280;18726;44.732;10.550;2023-07-24T00:55:09;100763.69;;;26.22;65.35
32237;BME280;18726;44.732;10.550;2023-07-24T00:58:13;100771.97;;;26.13;67.96
32237;BME280;18726;44.732;10.550;2023-07-24T01:01:19;100769.88;;;26.05;68.38
32237;BME280;18726;44.732;10.550;2023-07-24T01:04:23;100780.50;;;25.97;68.09
32237;BME280;18726;44.732;10.550;2023-07-24T01:07:26;100784.34;;;26.00;67.40
32237;BME280;18726;44.732;10.550;2023-07-24T01:10:31;100781.78;;;26.05;67.23
32237;BME280;18726;44.732;10.550;2023-07-24T01:13:37;100773.09;;;26.03;67.64
32237;BME280;18726;44.732;10.550;2023-07-24T01:16:46;100776.22;;;26.05;65.99
32237;BME280;18726;44.732;10.550;2023-07-24T01:19:55;100778.66;;;26.03;65.28
32237;BME280;18726;44.732;10.550;2023-07-24T01:26:42;100783.88;;;26.14;67.85
32237;BME280;18726;44.732;10.550;2023-07-24T01:29:46;100769.25;;;26.22;66.44
32237;BME280;18726;44.732;10.550;2023-07-24T01:32:51;100754.56;;;26.22;65.57
32237;BME280;18726;44.732;10.550;2023-07-24T01:35:58;100757.38;;;26.09;68.71
32237;BME280;18726;44.732;10.550;2023-07-24T01:39:02;100755.72;;;25.99;70.76
32237;BME280;18726;44.732;10.550;2023-07-24T01:42:06;100746.94;;;26.01;69.41
32237;BME280;18726;44.732;10.550;2023-07-24T01:45:11;100726.88;;;26.28;81.64
32237;BME280;18726;44.732;10.550;2023-07-24T01:48:15;100719.94;;;26.45;75.56
32237;BME280;18726;44.732;10.550;2023-07-24T01:51:18;100719.34;;;26.50;70.93
32237;BME280;18726;44.732;10.550;2023-07-24T01:54:22;100718.03;;;26.20;70.16
32237;BME280;18726;44.732;10.550;2023-07-24T01:57:25;100718.91;;;25.95;71.88
32237;BME280;18726;44.732;10.550;2023-07-24T02:00:29;100713.09;;;25.68;78.20
32237;BME280;18726;44.732;10.550;2023-07-24T02:03:35;100713.81;;;26.15;87.30
32237;BME280;18726;44.732;10.550;2023-07-24T02:06:39;100704.31;;;26.26;74.08
32237;BME280;18726;44.732;10.550;2023-07-24T02:09:43;100679.53;;;25.84;74.38
32237;BME280;18726;44.732;10.550;2023-07-24T02:12:47;100654.94;;;25.82;76.93
32237;BME280;18726;44.732;10.550;2023-07-24T02:15:51;100635.53;;;25.92;78.98
32237;BME280;18726;44.732;10.550;2023-07-24T02:18:55;100613.97;;;24.38;86.06
32237;BME280;18726;44.732;10.550;2023-07-24T02:21:59;100623.22;;;24.98;86.55
32237;BME280;18726;44.732;10.550;2023-07-24T02:25:03;100630.16;;;25.28;87.43
32237;BME280;18726;44.732;10.550;2023-07-24T02:28:07;100651.28;;;25.38;88.93
32237;BME280;18726;44.732;10.550;2023-07-24T02:31:11;100662.69;;;25.66;83.71
32237;BME280;18726;44.732;10.550;2023-07-24T02:34:14;100668.97;;;25.79;86.55
32237;BME280;18726;44.732;10.550;2023-07-24T02:37:18;100671.97;;;26.06;87.13
32237;BME280;18726;44.732;10.550;2023-07-24T02:40:22;100681.53;;;26.05;81.95
32237;BME280;18726;44.732;10.550;2023-07-24T02:43:26;100684.41;;;26.14;83.42
32237;BME280;18726;44.732;10.550;2023-07-24T02:46:30;100689.69;;;25.78;80.72
32237;BME280;18726;44.732;10.550;2023-07-24T02:49:34;100706.09;;;25.50;80.65
32237;BME280;18726;44.732;10.550;2023-07-24T02:52:39;100699.78;;;25.37;86.55
32237;BME280;18726;44.732;10.550;2023-07-24T02:55:42;100708.06;;;25.75;89.94
32237;BME280;18726;44.732;10.550;2023-07-24T02:58:46;100708.75;;;26.01;89.83
32237;BME280;18726;44.732;10.550;2023-07-24T03:01:51;100724.47;;;25.95;82.47
32237;BME280;18726;44.732;10.550;2023-07-24T03:04:55;100733.06;;;25.88;80.22
32237;BME280;18726;44.732;10.550;2023-07-24T03:07:59;100743.22;;;25.82;78.74
32237;BME280;18726;44.732;10.550;2023-07-24T03:11:07;100752.13;;;25.89;85.26
32237;BME280;18726;44.732;10.550;2023-07-24T03:14:11;100754.06;;;26.02;83.26
32237;BME280;18726;44.732;10.550;2023-07-24T03:17:14;100752.78;;;26.15;82.50
32237;BME280;18726;44.732;10.550;2023-07-24T03:20:19;100740.50;;;26.26;84.51
32237;BME280;18726;44.732;10.550;2023-07-24T03:23:24;100741.81;;;26.34;81.91
32237;BME280;18726;44.732;10.550;2023-07-24T03:26:28;100747.38;;;26.34;79.47
32237;BME280;18726;44.732;10.550;2023-07-24T03:29:32;100741.44;;;26.44;81.75
32237;BME280;18726;44.732;10.550;2023-07-24T03:32:36;100727.16;;;26.20;71.62
32237;BME280;18726;44.732;10.550;2023-07-24T03:35:41;100695.41;;;25.96;75.19
32237;BME280;18726;44.732;10.550;2023-07-24T03:38:45;100666.75;;;25.74;79.36
32237;BME280;18726;44.732;10.550;2023-07-24T03:41:49;100686.56;;;25.76;82.69
32237;BME280;18726;44.732;10.550;2023-07-24T03:44:54;100690.00;;;25.33;75.77
32237;BME280;18726;44.732;10.550;2023-07-24T03:47:57;100683.22;;;25.34;83.76
32237;BME280;18726;44.732;10.550;2023-07-24T03:51:01;100657.53;;;25.17;79.06
32237;BME280;18726;44.732;10.550;2023-07-24T03:54:05;100651.13;;;25.07;79.62
32237;BME280;18726;44.732;10.550;2023-07-24T03:57:09;100641.50;;;25.21;81.35
32237;BME280;18726;44.732;10.550;2023-07-24T04:00:13;100639.81;;;25.36;82.63
32237;BME280;18726;44.732;10.550;2023-07-24T04:03:17;100639.41;;;25.60;83.68
32237;BME280;18726;44.732;10.550;2023-07-24T04:06:21;100656.44;;;25.96;85.97
32237;BME280;18726;44.732;10.550;2023-07-24T04:09:25;100675.47;;;26.19;81.59
32237;BME280;18726;44.732;10.550;2023-07-24T04:12:29;100711.94;;;26.12;81.70
32237;BME280;18726;44.732;10.550;2023-07-24T04:15:33;100713.84;;;26.03;79.19
32237;BME280;18726;44.732;10.550;2023-07-24T04:18:36;100707.53;;;25.68;78.40
32237;BME280;18726;44.732;10.550;2023-07-24T04:21:40;100726.16;;;25.20;78.97
32237;BME280;18726;44.732;10.550;2023-07-24T04:24:44;100747.19;;;25.21;83.09
32237;BME280;18726;44.732;10.550;2023-07-24T04:27:48;100758.72;;;25.57;85.76
32237;BME280;18726;44.732;10.550;2023-07-24T04:30:52;100770.63;;;25.71;80.23
32237;BME280;18726;44.732;10.550;2023-07-24T04:33:56;100804.22;;;25.51;78.90
32237;BME280;18726;44.732;10.550;2023-07-24T04:37:00;100847.63;;;25.48;79.27
32237;BME280;18726;44.732;10.550;2023-07-24T04:40:03;100878.91;;;25.52;81.70
32237;BME280;18726;44.732;10.550;2023-07-24T04:43:08;100883.78;;;25.48;82.48
32237;BME280;18726;44.732;10.550;2023-07-24T04:46:11;100838.19;;;25.58;79.83
32237;BME280;18726;44.732;10.550;2023-07-24T04:49:16;100816.91;;;25.77;78.22
32237;BME280;18726;44.732;10.550;2023-07-24T04:52:19;100842.63;;;25.94;78.90
32237;BME280;18726;44.732;10.550;2023-07-24T04:55:23;100900.28;;;26.06;79.64
32237;BME280;18726;44.732;10.550;2023-07-24T04:58:27;100916.75;;;25.63;77.15
32237;BME280;18726;44.732;10.550;2023-07-24T05:01:31;100956.66;;;25.02;77.70
32237;BME280;18726;44.732;10.550;2023-07-24T05:04:35;100917.50;;;25.38;80.79
32237;BME280;18726;44.732;10.550;2023-07-24T05:07:40;100945.09;;;25.32;82.88
32237;BME280;18726;44.732;10.550;2023-07-24T05:10:44;100916.06;;;25.33;83.44
32237;BME280;18726;44.732;10.550;2023-07-24T05:13:47;100882.53;;;25.11;81.85
32237;BME280;18726;44.732;10.550;2023-07-24T05:16:51;100795.91;;;24.84;86.52
32237;BME280;18726;44.732;10.550;2023-07-24T05:19:55;100660.19;;;23.58;99.97
32237;BME280;18726;44.732;10.550;2023-07-24T05:22:58;100438.41;;;22.67;100.00
32237;BME280;18726;44.732;10.550;2023-07-24T05:26:03;100374.84;;;22.31;100.00
32237;BME280;18726;44.732;10.550;2023-07-24T05:29:07;100434.81;;;22.99;100.00
32237;BME280;18726;44.732;10.550;2023-07-24T05:32:11;100484.53;;;24.02;93.57
32237;BME280;18726;44.732;10.550;2023-07-24T05:35:14;100557.28;;;24.99;92.85
32237;BME280;18726;44.732;10.550;2023-07-24T05:38:18;100654.41;;;25.40;89.34
32237;BME280;18726;44.732;10.550;2023-07-24T05:41:22;100685.50;;;25.61;85.34
32237;BME280;18726;44.732;10.550;2023-07-24T05:44:26;100664.66;;;26.00;82.80
32237;BME280;18726;44.732;10.550;2023-07-24T05:47:30;100609.41;;;26.20;81.06
32237;BME280;18726;44.732;10.550;2023-07-24T05:50:34;100583.41;;;25.92;85.28
32237;BME280;18726;44.732;10.550;2023-07-24T05:53:37;100605.22;;;26.15;81.32
32237;BME280;18726;44.732;10.550;2023-07-24T05:56:41;100611.91;;;25.96;81.82
32237;BME280;18726;44.732;10.550;2023-07-24T05:59:45;100658.31;;;26.43;85.05
32237;BME280;18726;44.732;10.550;2023-07-24T06:02:49;100711.00;;;26.81;86.48
32237;BME280;18726;44.732;10.550;2023-07-24T06:05:53;100739.44;;;26.98;84.22
32237;BME280;18726;44.732;10.550;2023-07-24T06:08:58;100757.44;;;27.06;86.03
32237;BME280;18726;44.732;10.550;2023-07-24T06:12:02;100758.63;;;26.96;85.65
32237;BME280;18726;44.732;10.550;2023-07-24T06:15:06;100761.97;;;27.12;83.98
32237;BME280;18726;44.732;10.550;2023-07-24T06:18:10;100817.31;;;27.23;85.20
32237;BME280;18726;44.732;10.550;2023-07-24T06:21:14;100855.72;;;27.19;82.00
32237;BME280;18726;44.732;10.550;2023-07-24T06:24:18;100799.69;;;27.26;79.97
32237;BME280;18726;44.732;10.550;2023-07-24T06:27:21;100714.38;;;27.07;79.02
32237;BME280;18726;44.732;10.550;2023-07-24T06:30:25;100667.75;;;25.80;95.02
32237;BME280;18726;44.732;10.550;2023-07-24T06:33:29;100615.97;;;25.01;100.00
32237;BME280;18726;44.732;10.550;2023-07-24T06:36:32;100567.75;;;24.82;100.00
32237;BME280;18726;44.732;10.550;2023-07-24T06:39:36;100508.53;;;24.21;100.00
32237;BME280;18726;44.732;10.550;2023-07-24T06:42:40;100479.94;;;23.58;100.00
32237;BME280;18726;44.732;10.550;2023-07-24T06:45:43;100434.81;;;23.82;100.00
32237;BME280;18726;44.732;10.550;2023-07-24T06:48:47;100359.97;;;23.41;100.00
32237;BME280;18726;44.732;10.550;2023-07-24T06:51:51;100449.13;;;24.19;100.00
32237;BME280;18726;44.732;10.550;2023-07-24T06:54:55;100589.16;;;25.41;100.00
32237;BME280;18726;44.732;10.550;2023-07-24T06:57:58;100552.84;;;26.01;100.00
32237;BME280;18726;44.732;10.550;2023-07-24T07:01:06;100533.97;;;25.18;100.00
32237;BME280;18726;44.732;10.550;2023-07-24T07:04:10;100532.03;;;25.40;100.00
32237;BME280;18726;44.732;10.550;2023-07-24T07:07:14;100553.38;;;25.87;100.00
32237;BME280;18726;44.732;10.550;2023-07-24T07:10:18;100568.19;;;26.77;100.00
32237;BME280;18726;44.732;10.550;2023-07-24T07:13:21;100580.56;;;27.80;100.00
32237;BME280;18726;44.732;10.550;2023-07-24T07:16:25;100598.03;;;29.78;99.06
32237;BME280;18726;44.732;10.550;2023-07-24T07:19:29;100575.53;;;31.16;85.28
32237;BME280;18726;44.732;10.550;2023-07-24T07:22:33;100575.56;;;32.20;81.63
32237;BME280;18726;44.732;10.550;2023-07-24T07:25:36;100554.72;;;32.01;78.87
32237;BME280;18726;44.732;10.550;2023-07-24T07:28:39;100572.03;;;32.57;80.15
32237;BME280;18726;44.732;10.550;2023-07-24T07:31:43;100586.13;;;33.81;75.18
32237;BME280;18726;44.732;10.550;2023-07-24T07:34:47;100576.81;;;31.87;81.34
32237;BME280;18726;44.732;10.550;2023-07-24T07:37:50;100571.41;;;30.12;99.72
32237;BME280;18726;44.732;10.550;2023-07-24T07:40:54;100585.47;;;31.84;95.29
32237;BME280;18726;44.732;10.550;2023-07-24T07:43:58;100587.25;;;32.13;83.46
32237;BME280;18726;44.732;10.550;2023-07-24T07:47:03;100563.84;;;34.50;75.83
32237;BME280;18726;44.732;10.550;2023-07-24T07:50:06;100565.06;;;34.71;73.66
32237;BME280;18726;44.732;10.550;2023-07-24T07:53:10;100574.16;;;33.21;78.33
32237;BME280;18726;44.732;10.550;2023-07-24T07:56:13;100580.22;;;36.19;68.56
32237;BME280;18726;44.732;10.550;2023-07-24T07:59:18;100580.75;;;36.18;67.40
32237;BME280;18726;44.732;10.550;2023-07-24T08:02:21;100586.28;;;38.47;63.43
32237;BME280;18726;44.732;10.550;2023-07-24T08:05:24;100573.88;;;38.63;58.75
32237;BME280;18726;44.732;10.550;2023-07-24T08:08:28;100566.25;;;40.21;56.51
32237;BME280;18726;44.732;10.550;2023-07-24T08:11:35;100557.28;;;38.67;57.78
32237;BME280;18726;44.732;10.550;2023-07-24T08:14:38;100549.53;;;39.41;58.81
32237;BME280;18726;44.732;10.550;2023-07-24T08:17:43;100549.25;;;38.26;62.36
32237;BME280;18726;44.732;10.550;2023-07-24T08:20:50;100581.34;;;40.08;58.04
32237;BME280;18726;44.732;10.550;2023-07-24T08:23:54;100581.38;;;41.37;54.69
32237;BME280;18726;44.732;10.550;2023-07-24T08:26:58;100582.00;;;40.42;55.97
32237;BME280;18726;44.732;10.550;2023-07-24T08:30:02;100602.38;;;41.55;53.33
32237;BME280;18726;44.732;10.550;2023-07-24T08:33:06;100654.66;;;42.08;50.58
32237;BME280;18726;44.732;10.550;2023-07-24T08:36:10;100678.28;;;42.77;50.00
32237;BME280;18726;44.732;10.550;2023-07-24T08:39:16;100689.28;;;43.19;48.20
32237;BME280;18726;44.732;10.550;2023-07-24T08:42:21;100685.34;;;42.54;49.16
32237;BME280;18726;44.732;10.550;2023-07-24T08:45:25;100653.44;;;41.81;50.65
32237;BME280;18726;44.732;10.550;2023-07-24T08:48:39;100613.38;;;41.07;51.10
32237;BME280;18726;44.732;10.550;2023-07-24T08:51:44;100591.34;;;39.88;53.29
32237;BME280;18726;44.732;10.550;2023-07-24T08:54:48;100608.03;;;39.37;57.86
32237;BME280;18726;44.732;10.550;2023-07-24T08:57:53;100619.09;;;38.61;55.23
32237;BME280;18726;44.732;10.550;2023-07-24T09:00:57;100639.78;;;39.14;58.46
32237;BME280;18726;44.732;10.550;2023-07-24T09:04:01;100663.91;;;39.34;57.96
32237;BME280;18726;44.732;10.550;2023-07-24T09:07:06;100699.34;;;39.20;57.35
32237;BME280;18726;44.732;10.550;2023-07-24T09:10:11;100746.69;;;39.17;57.96
32237;BME280;18726;44.732;10.550;2023-07-24T09:13:15;100752.13;;;38.57;58.04
32237;BME280;18726;44.732;10.550;2023-07-24T09:16:26;100769.06;;;37.88;63.31
32237;BME280;18726;44.732;10.550;2023-07-24T09:19:31;100771.97;;;37.09;67.54
32237;BME280;18726;44.732;10.550;2023-07-24T09:22:35;100797.03;;;36.28;70.60
32237;BME280;18726;44.732;10.550;2023-07-24T09:25:40;100770.19;;;35.88;76.42
32237;BME280;18726;44.732;10.550;2023-07-24T09:28:52;100799.06;;;35.59;75.95
32237;BME280;18726;44.732;10.550;2023-07-24T09:31:57;100793.22;;;35.34;78.60
32237;BME280;18726;44.732;10.550;2023-07-24T09:35:01;100799.59;;;34.73;78.58
32237;BME280;18726;44.732;10.550;2023-07-24T09:38:10;100697.69;;;34.15;81.25
32237;BME280;18726;44.732;10.550;2023-07-24T09:41:14;100553.63;;;33.04;93.64
32237;BME280;18726;44.732;10.550;2023-07-24T09:44:19;100499.16;;;29.58;100.00
32237;BME280;18726;44.732;10.550;2023-07-24T09:47:23;100503.38;;;29.38;100.00
32237;BME280;18726;44.732;10.550;2023-07-24T09:50:27;100504.00;;;29.72;100.00
32237;BME280;18726;44.732;10.550;2023-07-24T09:53:47;100498.34;;;30.31;100.00
32237;BME280;18726;44.732;10.550;2023-07-24T09:56:55;100553.91;;;31.48;100.00
32237;BME280;18726;44.732;10.550;2023-07-24T10:00:00;100577.44;;;32.60;99.07
32237;BME280;18726;44.732;10.550;2023-07-24T10:03:04;100627.69;;;33.97;88.56
32237;BME280;18726;44.732;10.550;2023-07-24T10:06:08;100633.66;;;35.46;80.91
32237;BME280;18726;44.732;10.550;2023-07-24T10:09:15;100661.50;;;36.84;75.73
32237;BME280;18726;44.732;10.550;2023-07-24T10:12:20;100662.88;;;37.83;72.75
32237;BME280;18726;44.732;10.550;2023-07-24T10:15:24;100635.28;;;37.03;69.02
32237;BME280;18726;44.732;10.550;2023-07-24T10:18:28;100643.94;;;36.62;73.37
32237;BME280;18726;44.732;10.550;2023-07-24T10:21:33;100673.50;;;35.26;75.22
32237;BME280;18726;44.732;10.550;2023-07-24T10:24:38;100691.16;;;35.54;75.86
32237;BME280;18726;44.732;10.550;2023-07-24T10:27:43;100668.72;;;36.14;74.73
32237;BME280;18726;44.732;10.550;2023-07-24T10:30:55;100568.97;;;34.57;77.24
32237;BME280;18726;44.732;10.550;2023-07-24T10:34:06;100513.09;;;34.11;80.32
32237;BME280;18726;44.732;10.550;2023-07-24T10:37:10;100443.41;;;33.39;82.12
32237;BME280;18726;44.732;10.550;2023-07-24T10:40:21;100415.25;;;32.51;93.11
32237;BME280;18726;44.732;10.550;2023-07-24T10:43:24;100410.50;;;32.74;89.71
32237;BME280;18726;44.732;10.550;2023-07-24T10:46:38;100444.16;;;33.28;89.59
32237;BME280;18726;44.732;10.550;2023-07-24T10:49:49;100475.75;;;32.78;87.12
32237;BME280;18726;44.732;10.550;2023-07-24T10:52:52;100477.19;;;33.28;86.45
32237;BME280;18726;44.732;10.550;2023-07-24T10:55:56;100463.38;;;33.35;82.55
32237;BME280;18726;44.732;10.550;2023-07-24T10:59:03;100457.63;;;32.96;79.28
32237;BME280;18726;44.732;10.550;2023-07-24T11:02:07;100462.84;;;33.31;76.21
32237;BME280;18726;44.732;10.550;2023-07-24T11:05:12;100449.25;;;33.24;77.41
32237;BME280;18726;44.732;10.550;2023-07-24T11:08:19;100440.84;;;33.41;75.30
32237;BME280;18726;44.732;10.550;2023-07-24T11:11:30;100445.97;;;33.53;74.98
32237;BME280;18726;44.732;10.550;2023-07-24T11:14:34;100455.34;;;33.06;73.92
32237;BME280;18726;44.732;10.550;2023-07-24T11:17:38;100475.94;;;33.57;71.27
32237;BME280;18726;44.732;10.550;2023-07-24T11:23:55;100522.84;;;34.21;70.97
32237;BME280;18726;44.732;10.550;2023-07-24T11:26:59;100536.75;;;35.05;67.60
32237;BME280;18726;44.732;10.550;2023-07-24T11:30:03;100535.47;;;35.52;66.01
32237;BME280;18726;44.732;10.550;2023-07-24T11:33:09;100525.16;;;35.61;65.75
32237;BME280;18726;44.732;10.550;2023-07-24T11:36:13;100521.44;;;36.61;64.85
32237;BME280;18726;44.732;10.550;2023-07-24T11:39:23;100512.47;;;37.75;64.24
32237;BME280;18726;44.732;10.550;2023-07-24T11:42:28;100505.28;;;36.99;59.25
32237;BME280;18726;44.732;10.550;2023-07-24T11:45:41;100499.03;;;36.63;58.32
32237;BME280;18726;44.732;10.550;2023-07-24T11:48:46;100471.38;;;37.31;59.95
32237;BME280;18726;44.732;10.550;2023-07-24T11:51:50;100449.03;;;38.18;56.40
32237;BME280;18726;44.732;10.550;2023-07-24T11:54:58;100446.22;;;38.31;55.67
32237;BME280;18726;44.732;10.550;2023-07-24T11:58:06;100445.91;;;38.95;55.86
32237;BME280;18726;44.732;10.550;2023-07-24T12:01:14;100446.00;;;39.03;53.84
32237;BME280;18726;44.732;10.550;2023-07-24T12:04:18;100442.84;;;39.27;54.28
32237;BME280;18726;44.732;10.550;2023-07-24T12:07:33;100419.19;;;39.45;53.41
32237;BME280;18726;44.732;10.550;2023-07-24T12:10:38;100395.81;;;37.53;58.05
32237;BME280;18726;44.732;10.550;2023-07-24T12:13:42;100375.03;;;38.03;55.58
32237;BME280;18726;44.732;10.550;2023-07-24T12:16:46;100382.03;;;37.43;58.53
32237;BME280;18726;44.732;10.550;2023-07-24T12:19:50;100381.38;;;38.22;57.37
32237;BME280;18726;44.732;10.550;2023-07-24T12:22:53;100348.41;;;37.21;58.01
32237;BME280;18726;44.732;10.550;2023-07-24T12:25:57;100338.47;;;36.20;61.65
32237;BME280;18726;44.732;10.550;2023-07-24T12:29:01;100327.28;;;35.36;65.01
32237;BME280;18726;44.732;10.550;2023-07-24T12:32:04;100331.84;;;34.21;68.21
32237;BME280;18726;44.732;10.550;2023-07-24T12:35:09;100354.69;;;34.70;67.69
32237;BME280;18726;44.732;10.550;2023-07-24T12:38:13;100368.13;;;35.00;64.97
32237;BME280;18726;44.732;10.550;2023-07-24T12:41:16;100346.06;;;35.88;63.10
32237;BME280;18726;44.732;10.550;2023-07-24T12:44:20;100338.06;;;36.73;58.42
32237;BME280;18726;44.732;10.550;2023-07-24T12:47:24;100331.75;;;36.24;60.22
32237;BME280;18726;44.732;10.550;2023-07-24T12:50:27;100343.44;;;35.41;62.62
32237;BME280;18726;44.732;10.550;2023-07-24T12:53:31;100343.16;;;35.45;60.78
32237;BME280;18726;44.732;10.550;2023-07-24T12:56:35;100353.13;;;34.80;62.67
32237;BME280;18726;44.732;10.550;2023-07-24T12:59:39;100347.03;;;34.65;61.47
32237;BME280;18726;44.732;10.550;2023-07-24T13:02:43;100337.69;;;35.23;60.30
32237;BME280;18726;44.732;10.550;2023-07-24T13:05:47;100325.69;;;34.70;63.16
32237;BME280;18726;44.732;10.550;2023-07-24T13:08:51;100329.41;;;34.53;62.91
32237;BME280;18726;44.732;10.550;2023-07-24T13:11:55;100338.06;;;35.38;59.30
32237;BME280;18726;44.732;10.550;2023-07-24T13:14:59;100329.47;;;34.89;60.30
32237;BME280;18726;44.732;10.550;2023-07-24T13:18:03;100332.34;;;34.72;61.53
32237;BME280;18726;44.732;10.550;2023-07-24T13:21:06;100314.41;;;35.11;64.51
32237;BME280;18726;44.732;10.550;2023-07-24T13:24:11;100312.31;;;35.71;59.50
32237;BME280;18726;44.732;10.550;2023-07-24T13:27:14;100309.06;;;35.37;61.29
32237;BME280;18726;44.732;10.550;2023-07-24T13:30:18;100331.22;;;35.82;66.36
32237;BME280;18726;44.732;10.550;2023-07-24T13:33:22;100322.03;;;34.86;66.53
32237;BME280;18726;44.732;10.550;2023-07-24T13:36:26;100314.38;;;35.71;59.88
32237;BME280;18726;44.732;10.550;2023-07-24T13:39:30;100305.00;;;36.62;61.60
32237;BME280;18726;44.732;10.550;2023-07-24T13:42:35;100301.91;;;37.43;57.97
32237;BME280;18726;44.732;10.550;2023-07-24T13:45:38;100299.09;;;35.55;64.66
32237;BME280;18726;44.732;10.550;2023-07-24T13:48:42;100289.59;;;35.28;69.78
32237;BME280;18726;44.732;10.550;2023-07-24T13:51:46;100283.50;;;34.01;71.28
32237;BME280;18726;44.732;10.550;2023-07-24T13:54:50;100280.59;;;34.17;69.87
32237;BME280;18726;44.732;10.550;2023-07-24T13:57:54;100252.94;;;33.36;72.00
32237;BME280;18726;44.732;10.550;2023-07-24T14:00:57;100244.22;;;33.45;72.69
32237;BME280;18726;44.732;10.550;2023-07-24T14:04:01;100241.47;;;34.03;68.74
32237;BME280;18726;44.732;10.550;2023-07-24T14:07:06;100244.94;;;34.20;68.65
32237;BME280;18726;44.732;10.550;2023-07-24T14:10:10;100249.53;;;35.54;66.00
32237;BME280;18726;44.732;10.550;2023-07-24T14:13:14;100247.31;;;35.47;70.47
32237;BME280;18726;44.732;10.550;2023-07-24T14:16:18;100232.56;;;34.70;69.02
32237;BME280;18726;44.732;10.550;2023-07-24T14:19:22;100230.47;;;34.40;67.87
32237;BME280;18726;44.732;10.550;2023-07-24T14:22:27;100222.22;;;34.48;67.51
32237;BME280;18726;44.732;10.550;2023-07-24T14:25:30;100252.88;;;34.21;72.62
32237;BME280;18726;44.732;10.550;2023-07-24T14:28:34;100247.94;;;35.59;72.51
32237;BME280;18726;44.732;10.550;2023-07-24T14:31:37;100233.94;;;34.63;75.72
32237;BME280;18726;44.732;10.550;2023-07-24T14:34:42;100210.03;;;33.82;78.87
32237;BME280;18726;44.732;10.550;2023-07-24T14:37:45;100199.97;;;33.98;88.85
32237;BME280;18726;44.732;10.550;2023-07-24T14:40:49;100193.13;;;33.82;84.32
32237;BME280;18726;44.732;10.550;2023-07-24T14:43:52;100183.88;;;33.87;82.62
32237;BME280;18726;44.732;10.550;2023-07-24T14:46:56;100203.03;;;33.14;87.30
32237;BME280;18726;44.732;10.550;2023-07-24T14:50:00;100211.25;;;32.90;97.13
32237;BME280;18726;44.732;10.550;2023-07-24T14:53:04;100207.13;;;33.02;100.00
32237;BME280;18726;44.732;10.550;2023-07-24T14:56:08;100200.22;;;33.19;97.54
32237;BME280;18726;44.732;10.550;2023-07-24T14:59:12;100211.25;;;32.90;100.00
32237;BME280;18726;44.732;10.550;2023-07-24T15:02:16;100214.06;;;32.84;89.32
32237;BME280;18726;44.732;10.550;2023-07-24T15:05:19;100196.94;;;32.76;87.57
32237;BME280;18726;44.732;10.550;2023-07-24T15:08:23;100207.84;;;33.41;86.06
32237;BME280;18726;44.732;10.550;2023-07-24T15:11:27;100221.41;;;33.48;83.01
32237;BME280;18726;44.732;10.550;2023-07-24T15:14:31;100210.44;;;33.17;86.63
32237;BME280;18726;44.732;10.550;2023-07-24T15:17:35;100197.66;;;33.10;86.80
32237;BME280;18726;44.732;10.550;2023-07-24T15:20:38;100212.16;;;33.53;82.03
32237;BME280;18726;44.732;10.550;2023-07-24T15:23:41;100208.44;;;33.92;79.96
32237;BME280;18726;44.732;10.550;2023-07-24T15:26:45;100191.25;;;33.10;82.02
32237;BME280;18726;44.732;10.550;2023-07-24T15:29:49;100186.00;;;33.70;80.84
32237;BME280;18726;44.732;10.550;2023-07-24T15:32:53;100159.72;;;33.45;83.16
32237;BME280;18726;44.732;10.550;2023-07-24T15:35:58;100144.63;;;33.42;84.22
32237;BME280;18726;44.732;10.550;2023-07-24T15:39:02;100137.50;;;33.19;82.96
32237;BME280;18726;44.732;10.550;2023-07-24T15:42:06;100118.88;;;32.94;85.90
32237;BME280;18726;44.732;10.550;2023-07-24T15:45:11;100105.63;;;32.61;89.89
32237;BME280;18726;44.732;10.550;2023-07-24T15:48:15;100120.94;;;32.71;93.24
32237;BME280;18726;44.732;10.550;2023-07-24T15:51:19;100117.81;;;33.13;88.38
32237;BME280;18726;44.732;10.550;2023-07-24T15:54:23;100098.91;;;33.03;90.41
32237;BME280;18726;44.732;10.550;2023-07-24T15:57:26;100107.91;;;32.84;94.56
32237;BME280;18726;44.732;10.550;2023-07-24T16:00:31;100108.16;;;32.86;92.76